KTBR/TBR METAR and TAF weather

Enter ICAO airport designator
Station Type Date Time Source
KTBR METAR 2023/02/05 23:35 UTC NOAA

KTBR 052335Z AUTO 00000KT 10SM CLR 10/08 A3014 RMK AO2 T01010082


Station Type Date Time Source
KTBR Decoded METAR 2023/02/05 23:35 UTC NOAA

Statesboro, Statesboro-Bulloch County Airport, GA, United States (KTBR) 32-28-59N 081-44-14W
Feb 05, 2023 - 06:35 PM EST / 2023.02.05 2335 UTC
Wind: Calm:0
Visibility: 10 mile(s):0
Sky conditions: clear
Temperature: 50.2 F (10.1 C)
Dew Point: 46.8 F (8.2 C)
Relative Humidity: 87%
Pressure (altimeter): 30.14 in. Hg (1020 hPa)
ob: KTBR 052335Z AUTO 00000KT 10SM CLR 10/08 A3014 RMK AO2 T01010082
cycle: 23

Station Type Date Time Source
KTBR TAF UTC NOAA

Error!

Example: see airport list